createdAt,value
2023-12-23T00:00:30.149Z,92093.00
2023-12-23T00:01:30.233Z,92099.00
2023-12-23T00:02:30.290Z,92103.00
2023-12-23T00:03:30.382Z,92099.00
2023-12-23T00:04:30.440Z,92102.00
2023-12-23T00:05:30.603Z,92104.00
2023-12-23T00:06:30.592Z,92106.00
2023-12-23T00:07:30.683Z,92109.00
2023-12-23T00:08:30.922Z,92112.00
2023-12-23T00:09:30.817Z,92111.00
2023-12-23T00:10:31.011Z,92117.00
2023-12-23T00:11:30.976Z,92110.00
2023-12-23T00:12:31.075Z,92112.00
2023-12-23T00:13:31.121Z,92119.00
2023-12-23T00:14:31.201Z,92121.00
2023-12-23T00:15:31.284Z,92118.00
2023-12-23T00:16:31.364Z,92122.00
2023-12-23T00:17:31.610Z,92118.00
2023-12-23T00:18:31.577Z,92120.00
2023-12-23T00:19:31.707Z,92122.00
2023-12-23T00:20:31.746Z,92113.00
2023-12-23T00:21:31.767Z,92111.00
2023-12-23T00:22:31.817Z,92118.00
2023-12-23T00:23:31.897Z,92120.00
2023-12-23T00:24:31.966Z,92107.00
2023-12-23T00:25:32.037Z,92120.00
2023-12-23T00:26:32.140Z,92123.00
2023-12-23T00:27:32.204Z,92127.00
2023-12-23T00:28:32.270Z,92127.00
2023-12-23T00:29:32.352Z,92123.00
2023-12-23T00:30:32.451Z,92138.00
2023-12-23T00:31:32.504Z,92124.00
2023-12-23T00:32:32.586Z,92124.00
2023-12-23T00:33:32.714Z,92117.00
2023-12-23T00:34:32.723Z,92129.00
2023-12-23T00:35:32.784Z,92131.00
2023-12-23T00:36:32.854Z,92133.00
2023-12-23T00:37:32.948Z,92134.00
2023-12-23T00:38:33.004Z,92135.00
2023-12-23T00:39:33.080Z,92131.00
2023-12-23T00:40:33.232Z,92136.00
2023-12-23T00:41:33.235Z,92118.00
2023-12-23T00:42:33.290Z,92130.00
2023-12-23T00:43:33.366Z,92134.00
2023-12-23T00:44:33.444Z,92130.00
2023-12-23T00:45:33.516Z,92130.00
2023-12-23T00:46:33.657Z,92130.00
2023-12-23T00:47:36.418Z,92140.00
2023-12-23T00:48:33.746Z,92132.00
2023-12-23T00:49:33.709Z,92120.00
2023-12-23T00:50:33.702Z,92134.00
2023-12-23T00:51:33.726Z,92140.00
2023-12-23T00:52:33.836Z,92136.00
2023-12-23T00:53:33.734Z,92124.00
2023-12-23T00:54:33.745Z,92143.00
2023-12-23T00:55:33.775Z,92156.00
2023-12-23T00:56:33.777Z,92154.00
2023-12-23T00:57:33.787Z,92143.00
2023-12-23T00:58:33.831Z,92150.00
2023-12-23T00:59:33.816Z,92145.00
2023-12-23T01:00:33.966Z,92135.00
2023-12-23T01:01:33.999Z,92146.00
2023-12-23T01:02:34.010Z,92160.00
2023-12-23T01:03:34.167Z,92142.00
2023-12-23T01:04:34.193Z,92139.00
2023-12-23T01:05:34.240Z,92140.00
2023-12-23T01:06:34.318Z,92151.00
2023-12-23T01:07:34.414Z,92161.00
2023-12-23T01:08:34.445Z,92164.00
2023-12-23T01:09:35.092Z,92167.00
2023-12-23T01:10:34.663Z,92174.00
2023-12-23T01:11:34.664Z,92168.00
2023-12-23T01:12:34.740Z,92173.00
2023-12-23T01:13:34.813Z,92173.00
2023-12-23T01:14:34.903Z,92176.00
2023-12-23T01:15:34.957Z,92183.00
2023-12-23T01:16:35.055Z,92187.00
2023-12-23T01:17:35.151Z,92172.00
2023-12-23T01:18:35.304Z,92161.00
2023-12-23T01:19:35.313Z,92169.00
2023-12-23T01:20:35.309Z,92171.00
2023-12-23T01:21:35.387Z,92180.00
2023-12-23T01:22:35.503Z,92184.00
2023-12-23T01:23:35.537Z,92192.00
2023-12-23T01:24:35.596Z,92194.00
2023-12-23T01:25:35.710Z,92192.00
2023-12-23T01:26:35.737Z,92203.00
2023-12-23T01:27:35.812Z,92207.00
2023-12-23T01:28:35.905Z,92205.00
2023-12-23T01:29:35.953Z,92205.00
2023-12-23T01:30:36.082Z,92197.00
2023-12-23T01:31:36.145Z,92211.00
2023-12-23T01:32:36.257Z,92220.00
2023-12-23T01:33:36.370Z,92210.00
2023-12-23T01:34:36.376Z,92216.00
2023-12-23T01:35:36.398Z,92211.00
2023-12-23T01:36:36.469Z,92216.00
2023-12-23T01:37:36.588Z,92224.00
2023-12-23T01:38:36.644Z,92222.00
2023-12-23T01:39:36.700Z,92226.00
2023-12-23T01:40:36.902Z,92226.00
2023-12-23T01:41:36.830Z,92223.00
2023-12-23T01:42:36.909Z,92231.00
2023-12-23T01:43:37.004Z,92237.00
2023-12-23T01:44:37.073Z,92239.00
2023-12-23T01:45:37.152Z,92236.00
2023-12-23T01:46:37.260Z,92236.00
2023-12-23T01:47:37.354Z,92235.00
2023-12-23T01:48:37.411Z,92245.00
2023-12-23T01:49:37.442Z,92243.00
2023-12-23T01:50:37.588Z,92240.00
2023-12-23T01:51:37.597Z,92239.00
2023-12-23T01:52:37.712Z,92249.00
2023-12-23T01:53:37.723Z,92243.00
2023-12-23T01:54:37.783Z,92248.00
2023-12-23T01:55:37.893Z,92263.00
2023-12-23T01:56:37.932Z,92264.00
2023-12-23T01:57:38.002Z,92253.00
2023-12-23T01:58:38.103Z,92249.00
2023-12-23T01:59:38.154Z,92256.00
2023-12-23T02:00:38.241Z,92249.00
2023-12-23T02:01:38.414Z,92251.00
2023-12-23T02:02:38.433Z,92258.00
2023-12-23T02:03:38.504Z,92255.00
2023-12-23T02:04:38.493Z,92258.00
2023-12-23T02:05:38.614Z,92261.00
2023-12-23T02:06:38.636Z,92255.00
2023-12-23T02:07:38.748Z,92264.00
2023-12-23T02:08:38.771Z,92265.00
2023-12-23T02:09:38.845Z,92259.00
2023-12-23T02:10:38.945Z,92256.00
2023-12-23T02:11:39.000Z,92251.00
2023-12-23T02:12:39.863Z,92249.00
2023-12-23T02:13:39.242Z,92249.00
2023-12-23T02:14:39.257Z,92252.00
2023-12-23T02:15:39.335Z,92250.00
2023-12-23T02:16:39.411Z,92249.00
2023-12-23T02:17:39.550Z,92242.00
2023-12-23T02:18:39.662Z,92244.00
2023-12-23T02:19:39.676Z,92257.00
2023-12-23T02:20:39.676Z,92265.00
2023-12-23T02:21:39.757Z,92261.00
2023-12-23T02:22:40.019Z,92262.00
2023-12-23T02:23:39.906Z,92256.00
2023-12-23T02:24:39.977Z,92254.00
2023-12-23T02:25:40.070Z,92262.00
2023-12-23T02:26:40.124Z,92272.00
2023-12-23T02:27:40.199Z,92281.00
2023-12-23T02:28:40.303Z,92283.00
2023-12-23T02:29:40.356Z,92281.00
2023-12-23T02:30:40.487Z,92277.00
2023-12-23T02:31:40.544Z,92273.00
2023-12-23T02:32:40.636Z,92270.00
2023-12-23T02:33:40.730Z,92277.00
2023-12-23T02:34:40.743Z,92276.00
2023-12-23T02:35:40.782Z,92276.00
2023-12-23T02:36:40.863Z,92272.00
2023-12-23T02:37:40.996Z,92277.00
2023-12-23T02:38:41.006Z,92280.00
2023-12-23T02:39:41.100Z,92281.00
2023-12-23T02:40:41.217Z,92284.00
2023-12-23T02:41:41.223Z,92281.00
2023-12-23T02:42:41.298Z,92281.00
2023-12-23T02:43:41.427Z,92284.00
2023-12-23T02:44:41.450Z,92277.00
2023-12-23T02:45:41.511Z,92267.00
2023-12-23T02:46:41.636Z,92263.00
2023-12-23T02:47:41.781Z,92270.00
2023-12-23T02:48:41.903Z,92286.00
2023-12-23T02:49:41.826Z,92286.00
2023-12-23T02:50:41.888Z,92279.00
2023-12-23T02:51:41.934Z,92275.00
2023-12-23T02:52:42.022Z,92276.00
2023-12-23T02:53:42.080Z,92285.00
2023-12-23T02:54:42.143Z,92281.00
2023-12-23T02:55:42.221Z,92284.00
2023-12-23T02:56:42.266Z,92282.00
2023-12-23T02:57:42.362Z,92285.00
2023-12-23T02:58:42.484Z,92288.00
2023-12-23T02:59:42.501Z,92286.00
2023-12-23T03:00:42.622Z,92289.00
2023-12-23T03:01:42.697Z,92287.00
2023-12-23T03:02:42.713Z,92280.00
2023-12-23T03:03:42.821Z,92287.00
2023-12-23T03:04:42.879Z,92294.00
2023-12-23T03:05:43.053Z,92298.00
2023-12-23T03:06:43.005Z,92304.00
2023-12-23T03:07:43.120Z,92312.00
2023-12-23T03:08:43.232Z,92308.00
2023-12-23T03:09:43.209Z,92310.00
2023-12-23T03:10:43.316Z,92306.00
2023-12-23T03:11:43.357Z,92303.00
2023-12-23T03:12:43.431Z,92300.00
2023-12-23T03:13:43.551Z,92306.00
2023-12-23T03:14:43.572Z,92304.00
2023-12-23T03:15:43.621Z,92302.00
2023-12-23T03:16:43.737Z,92299.00
2023-12-23T03:17:43.813Z,92297.00
2023-12-23T03:18:43.821Z,92291.00
2023-12-23T03:19:44.183Z,92295.00
2023-12-23T03:20:43.910Z,92301.00
2023-12-23T03:21:43.977Z,92296.00
2023-12-23T03:22:44.057Z,92295.00
2023-12-23T03:23:44.138Z,92300.00
2023-12-23T03:24:44.170Z,92310.00
2023-12-23T03:25:44.256Z,92311.00
2023-12-23T03:26:44.324Z,92317.00
2023-12-23T03:27:44.391Z,92308.00
2023-12-23T03:28:44.473Z,92301.00
2023-12-23T03:29:44.529Z,92299.00
2023-12-23T03:30:44.652Z,92303.00
2023-12-23T03:31:44.707Z,92312.00
2023-12-23T03:32:44.775Z,92311.00
2023-12-23T03:33:44.849Z,92314.00
2023-12-23T03:34:44.896Z,92318.00
2023-12-23T03:35:44.941Z,92316.00
2023-12-23T03:36:45.006Z,92310.00
2023-12-23T03:37:45.089Z,92308.00
2023-12-23T03:38:45.141Z,92308.00
2023-12-23T03:39:45.212Z,92308.00
2023-12-23T03:40:45.327Z,92304.00
2023-12-23T03:41:45.351Z,92307.00
2023-12-23T03:42:45.416Z,92313.00
2023-12-23T03:43:45.544Z,92314.00
2023-12-23T03:44:45.557Z,92314.00
2023-12-23T03:45:45.627Z,92310.00
2023-12-23T03:46:45.740Z,92301.00
2023-12-23T03:47:45.802Z,92316.00
2023-12-23T03:48:45.866Z,92317.00
2023-12-23T03:49:45.963Z,92320.00
2023-12-23T03:50:45.983Z,92318.00
2023-12-23T03:51:46.065Z,92317.00
2023-12-23T03:52:46.184Z,92311.00
2023-12-23T03:53:46.191Z,92317.00
2023-12-23T03:54:46.276Z,92312.00
2023-12-23T03:55:46.411Z,92308.00
2023-12-23T03:56:49.141Z,92304.00
2023-12-23T03:57:46.468Z,92305.00
2023-12-23T03:58:46.457Z,92312.00
2023-12-23T03:59:46.431Z,92313.00
2023-12-23T04:00:46.474Z,92306.00
2023-12-23T04:01:46.493Z,92313.00
2023-12-23T04:02:46.557Z,92310.00
2023-12-23T04:03:46.518Z,92301.00
2023-12-23T04:04:46.514Z,92298.00
2023-12-23T04:05:46.528Z,92305.00
2023-12-23T04:06:46.513Z,92307.00
2023-12-23T04:07:46.500Z,92310.00
2023-12-23T04:08:46.500Z,92308.00
2023-12-23T04:09:46.512Z,92307.00
2023-12-23T04:10:46.522Z,92312.00
2023-12-23T04:11:46.542Z,92316.00
2023-12-23T04:12:46.675Z,92323.00
2023-12-23T04:13:46.573Z,92318.00
2023-12-23T04:14:46.590Z,92309.00
2023-12-23T04:15:46.574Z,92315.00
2023-12-23T04:16:46.608Z,92312.00
2023-12-23T04:17:46.625Z,92317.00
2023-12-23T04:18:46.651Z,92316.00
2023-12-23T04:19:46.629Z,92312.00
2023-12-23T04:20:46.633Z,92322.00
2023-12-23T04:21:46.649Z,92323.00
2023-12-23T04:22:46.736Z,92325.00
2023-12-23T04:23:46.673Z,92319.00
2023-12-23T04:24:46.713Z,92327.00
2023-12-23T04:25:46.765Z,92334.00
2023-12-23T04:26:46.741Z,92334.00
2023-12-23T04:27:46.794Z,92336.00
2023-12-23T04:28:46.892Z,92336.00
2023-12-23T04:29:46.936Z,92338.00
2023-12-23T04:30:47.071Z,92325.00
2023-12-23T04:31:47.182Z,92321.00
2023-12-23T04:32:47.424Z,92321.00
2023-12-23T04:33:47.302Z,92325.00
2023-12-23T04:34:47.352Z,92326.00
2023-12-23T04:35:47.400Z,92330.00
2023-12-23T04:36:47.504Z,92336.00
2023-12-23T04:37:47.768Z,92332.00
2023-12-23T04:38:55.016Z,92325.00
2023-12-23T04:39:55.021Z,92324.00
2023-12-23T04:40:55.023Z,92329.00
2023-12-23T04:41:55.026Z,92339.00
2023-12-23T04:42:55.019Z,92342.00
2023-12-23T04:43:55.045Z,92337.00
2023-12-23T04:44:54.994Z,92343.00
2023-12-23T04:45:54.986Z,92342.00
2023-12-23T04:46:54.995Z,92347.00
2023-12-23T04:47:55.053Z,92352.00
2023-12-23T04:48:54.983Z,92353.00
2023-12-23T04:49:55.001Z,92345.00
2023-12-23T04:50:54.965Z,92346.00
2023-12-23T04:51:54.955Z,92348.00
2023-12-23T04:52:55.018Z,92346.00
2023-12-23T04:53:54.943Z,92349.00
2023-12-23T04:54:54.939Z,92346.00
2023-12-23T04:55:54.957Z,92349.00
2023-12-23T04:56:54.925Z,92337.00
2023-12-23T04:57:54.923Z,92331.00
2023-12-23T04:58:54.963Z,92335.00
2023-12-23T04:59:54.934Z,92335.00
2023-12-23T05:00:54.948Z,92341.00
2023-12-23T05:01:54.936Z,92348.00
2023-12-23T05:02:55.110Z,92350.00
2023-12-23T05:03:54.935Z,92346.00
2023-12-23T05:04:54.938Z,92346.00
2023-12-23T05:05:54.989Z,92339.00
2023-12-23T05:06:54.917Z,92345.00
2023-12-23T05:07:55.050Z,92346.00
2023-12-23T05:08:55.006Z,92352.00
2023-12-23T05:09:54.895Z,92349.00
2023-12-23T05:10:54.977Z,92350.00
2023-12-23T05:11:54.904Z,92357.00
2023-12-23T05:12:54.885Z,92355.00
2023-12-23T05:13:54.889Z,92353.00
2023-12-23T05:14:54.887Z,92349.00
2023-12-23T05:15:54.866Z,92345.00
2023-12-23T05:16:54.908Z,92348.00
2023-12-23T05:17:54.907Z,92351.00
2023-12-23T05:18:54.974Z,92350.00
2023-12-23T05:19:54.877Z,92345.00
2023-12-23T05:20:54.835Z,92346.00
2023-12-23T05:21:54.821Z,92344.00
2023-12-23T05:22:55.039Z,92349.00
2023-12-23T05:23:54.804Z,92347.00
2023-12-23T05:24:54.796Z,92343.00
2023-12-23T05:25:54.800Z,92336.00
2023-12-23T05:26:54.788Z,92319.00
2023-12-23T05:27:54.785Z,92326.00
2023-12-23T05:28:54.822Z,92331.00
2023-12-23T05:29:54.782Z,92328.00
2023-12-23T05:30:54.830Z,92332.00
2023-12-23T05:31:54.837Z,92331.00
2023-12-23T05:32:55.126Z,92337.00
2023-12-23T05:33:54.821Z,92330.00
2023-12-23T05:34:54.771Z,92332.00
2023-12-23T05:35:54.783Z,92332.00
2023-12-23T05:36:54.762Z,92336.00
2023-12-23T05:37:54.786Z,92343.00
2023-12-23T05:38:54.757Z,92333.00
2023-12-23T05:39:54.758Z,92331.00
2023-12-23T05:40:54.771Z,92337.00
2023-12-23T05:41:54.756Z,92346.00
2023-12-23T05:42:54.798Z,92344.00
2023-12-23T05:43:54.788Z,92347.00
2023-12-23T05:44:54.833Z,92341.00
2023-12-23T05:45:54.833Z,92336.00
2023-12-23T05:46:54.941Z,92331.00
2023-12-23T05:47:55.015Z,92331.00
2023-12-23T05:48:55.009Z,92333.00
2023-12-23T05:49:55.027Z,92338.00
2023-12-23T05:50:55.029Z,92341.00
2023-12-23T05:51:55.099Z,92340.00
2023-12-23T05:52:55.385Z,92328.00
2023-12-23T05:53:55.125Z,92343.00
2023-12-23T05:54:55.179Z,92346.00
2023-12-23T05:55:55.323Z,92352.00
2023-12-23T05:56:55.294Z,92349.00
2023-12-23T05:57:55.308Z,92350.00
2023-12-23T05:58:55.408Z,92356.00
2023-12-23T05:59:55.449Z,92345.00
2023-12-23T06:00:55.544Z,92343.00
2023-12-23T06:01:55.708Z,92328.00
2023-12-23T06:02:55.554Z,92333.00
2023-12-23T06:03:55.737Z,92340.00
2023-12-23T06:04:55.722Z,92354.00
2023-12-23T06:05:56.656Z,92360.00
2023-12-23T06:06:55.707Z,92354.00
2023-12-23T06:07:55.735Z,92345.00
2023-12-23T06:08:55.780Z,92344.00
2023-12-23T06:09:55.827Z,92344.00
2023-12-23T06:10:58.431Z,92347.00
2023-12-23T06:11:55.842Z,92346.00
2023-12-23T06:12:55.843Z,92357.00
2023-12-23T06:13:55.917Z,92357.00
2023-12-23T06:14:55.850Z,92352.00
2023-12-23T06:15:55.850Z,92345.00
2023-12-23T06:16:55.862Z,92350.00
2023-12-23T06:17:57.341Z,92342.00
2023-12-23T06:18:55.986Z,92347.00
2023-12-23T06:19:55.998Z,92343.00
2023-12-23T06:20:55.992Z,92342.00
2023-12-23T06:21:56.015Z,92345.00
2023-12-23T06:22:56.079Z,92349.00
2023-12-23T06:23:56.128Z,92347.00
2023-12-23T06:24:56.144Z,92336.00
2023-12-23T06:25:56.244Z,92340.00
2023-12-23T06:26:56.204Z,92346.00
2023-12-23T06:27:56.253Z,92346.00
2023-12-23T06:28:56.351Z,92346.00
2023-12-23T06:29:56.289Z,92349.00
2023-12-23T06:30:56.353Z,92349.00
2023-12-23T06:31:56.368Z,92340.00
2023-12-23T06:32:56.493Z,92341.00
2023-12-23T06:33:56.543Z,92339.00
2023-12-23T06:34:56.540Z,92340.00
2023-12-23T06:35:56.583Z,92342.00
2023-12-23T06:36:56.621Z,92347.00
2023-12-23T06:37:56.740Z,92349.00
2023-12-23T06:38:56.703Z,92350.00
2023-12-23T06:39:56.744Z,92354.00
2023-12-23T06:40:56.811Z,92358.00
2023-12-23T06:41:56.824Z,92357.00
2023-12-23T06:42:56.870Z,92364.00
2023-12-23T06:43:56.953Z,92364.00
2023-12-23T06:44:56.980Z,92365.00
2023-12-23T06:45:56.975Z,92357.00
2023-12-23T06:46:57.012Z,92358.00
2023-12-23T06:47:57.253Z,92354.00
2023-12-23T06:48:57.177Z,92363.00
2023-12-23T06:49:57.204Z,92365.00
2023-12-23T06:50:57.180Z,92367.00
2023-12-23T06:51:57.236Z,92368.00
2023-12-23T06:52:57.282Z,92364.00
2023-12-23T06:53:57.339Z,92364.00
2023-12-23T06:54:57.345Z,92364.00
2023-12-23T06:55:57.416Z,92364.00
2023-12-23T06:56:57.419Z,92358.00
2023-12-23T06:57:57.450Z,92353.00
2023-12-23T06:58:57.535Z,92362.00
2023-12-23T06:59:57.526Z,92369.00
2023-12-23T07:00:57.688Z,92366.00
2023-12-23T07:01:57.626Z,92364.00
2023-12-23T07:02:57.610Z,92359.00
2023-12-23T07:03:57.660Z,92355.00
2023-12-23T07:04:57.760Z,92355.00
2023-12-23T07:05:57.803Z,92363.00
2023-12-23T07:06:57.797Z,92362.00
2023-12-23T07:07:57.857Z,92361.00
2023-12-23T07:08:57.912Z,92367.00
2023-12-23T07:10:04.381Z,92374.00
2023-12-23T07:10:59.014Z,92378.00
2023-12-23T07:11:57.974Z,92373.00
2023-12-23T07:12:57.958Z,92377.00
2023-12-23T07:13:58.052Z,92366.00
2023-12-23T07:14:57.961Z,92366.00
2023-12-23T07:15:57.983Z,92374.00
2023-12-23T07:16:58.017Z,92391.00
2023-12-23T07:17:58.024Z,92392.00
2023-12-23T07:18:58.084Z,92397.00
2023-12-23T07:19:58.003Z,92410.00
2023-12-23T07:20:58.015Z,92415.00
2023-12-23T07:21:58.083Z,92413.00
2023-12-23T07:22:58.157Z,92411.00
2023-12-23T07:23:58.194Z,92407.00
2023-12-23T07:24:58.246Z,92413.00
2023-12-23T07:25:58.343Z,92421.00
2023-12-23T07:26:58.374Z,92422.00
2023-12-23T07:27:58.479Z,92414.00
2023-12-23T07:28:58.612Z,92404.00
2023-12-23T07:29:58.632Z,92409.00
2023-12-23T07:30:58.658Z,92410.00
2023-12-23T07:31:58.707Z,92409.00
2023-12-23T07:32:58.904Z,92410.00
2023-12-23T07:33:58.989Z,92419.00
2023-12-23T07:34:58.933Z,92410.00
2023-12-23T07:35:58.930Z,92419.00
2023-12-23T07:36:58.982Z,92420.00
2023-12-23T07:37:59.160Z,92408.00
2023-12-23T07:38:59.087Z,92418.00
2023-12-23T07:39:59.120Z,92418.00
2023-12-23T07:40:59.172Z,92435.00
2023-12-23T07:41:59.178Z,92431.00
2023-12-23T07:42:59.231Z,92427.00
2023-12-23T07:43:59.337Z,92423.00
2023-12-23T07:44:59.315Z,92419.00
2023-12-23T07:45:59.348Z,92418.00
2023-12-23T07:46:59.393Z,92423.00
2023-12-23T07:47:59.604Z,92417.00
2023-12-23T07:48:59.524Z,92419.00
2023-12-23T07:49:59.490Z,92429.00
2023-12-23T07:50:59.494Z,92431.00
2023-12-23T07:51:59.492Z,92430.00
2023-12-23T07:52:59.561Z,92425.00
2023-12-23T07:53:59.670Z,92412.00
2023-12-23T07:54:59.648Z,92414.00
2023-12-23T07:55:59.661Z,92414.00
2023-12-23T07:56:59.649Z,92421.00
2023-12-23T07:57:59.703Z,92426.00
2023-12-23T07:58:59.794Z,92426.00
2023-12-23T07:59:59.779Z,92415.00
2023-12-23T08:00:59.862Z,92422.00
2023-12-23T08:01:59.889Z,92419.00
2023-12-23T08:02:59.941Z,92425.00
2023-12-23T08:04:00.022Z,92425.00
2023-12-23T08:05:00.031Z,92420.00
2023-12-23T08:06:00.334Z,92416.00
2023-12-23T08:07:00.127Z,92413.00
2023-12-23T08:08:00.303Z,92416.00
2023-12-23T08:09:00.221Z,92421.00
2023-12-23T08:10:00.411Z,92425.00
2023-12-23T08:11:00.340Z,92422.00
2023-12-23T08:12:00.316Z,92428.00
2023-12-23T08:13:00.345Z,92432.00
2023-12-23T08:14:00.499Z,92429.00
2023-12-23T08:15:00.416Z,92422.00
2023-12-23T08:16:00.504Z,92409.00
2023-12-23T08:17:00.554Z,92410.00
2023-12-23T08:18:00.632Z,92416.00
2023-12-23T08:19:00.609Z,92424.00
2023-12-23T08:20:00.747Z,92424.00
2023-12-23T08:21:00.617Z,92422.00
2023-12-23T08:22:00.659Z,92418.00
2023-12-23T08:23:00.721Z,92413.00
2023-12-23T08:24:00.714Z,92410.00
2023-12-23T08:25:00.751Z,92401.00
2023-12-23T08:26:00.852Z,92399.00
2023-12-23T08:27:00.886Z,92407.00
2023-12-23T08:28:00.949Z,92414.00
2023-12-23T08:29:01.045Z,92415.00
2023-12-23T08:30:01.088Z,92411.00
2023-12-23T08:31:01.154Z,92409.00
2023-12-23T08:32:01.200Z,92411.00
2023-12-23T08:33:01.299Z,92404.00
2023-12-23T08:34:01.368Z,92394.00
2023-12-23T08:35:01.334Z,92392.00
2023-12-23T08:36:01.352Z,92398.00
2023-12-23T08:37:01.401Z,92399.00
2023-12-23T08:38:01.448Z,92392.00
2023-12-23T08:39:01.508Z,92390.00
2023-12-23T08:40:01.520Z,92393.00
2023-12-23T08:41:01.724Z,92385.00
2023-12-23T08:42:01.638Z,92386.00
2023-12-23T08:43:01.655Z,92394.00
2023-12-23T08:44:01.702Z,92395.00
2023-12-23T08:45:01.661Z,92391.00
2023-12-23T08:46:01.682Z,92384.00
2023-12-23T08:47:01.744Z,92382.00
2023-12-23T08:48:01.868Z,92383.00
2023-12-23T08:49:01.869Z,92373.00
2023-12-23T08:50:01.913Z,92376.00
2023-12-23T08:51:01.948Z,92376.00
2023-12-23T08:52:01.969Z,92377.00
2023-12-23T08:53:02.047Z,92374.00
2023-12-23T08:54:02.034Z,92374.00
2023-12-23T08:55:02.087Z,92382.00
2023-12-23T08:56:02.151Z,92377.00
2023-12-23T08:57:02.172Z,92383.00
2023-12-23T08:58:02.209Z,92381.00
2023-12-23T08:59:02.292Z,92369.00
2023-12-23T09:00:02.324Z,92368.00
2023-12-23T09:01:02.392Z,92377.00
2023-12-23T09:02:02.457Z,92372.00
2023-12-23T09:03:02.466Z,92376.00
2023-12-23T09:04:02.517Z,92382.00
2023-12-23T09:05:02.664Z,92392.00
2023-12-23T09:06:02.725Z,92391.00
2023-12-23T09:07:02.625Z,92386.00
2023-12-23T09:08:02.706Z,92379.00
2023-12-23T09:09:02.830Z,92385.00
2023-12-23T09:10:02.695Z,92390.00
2023-12-23T09:11:02.795Z,92387.00
2023-12-23T09:12:02.791Z,92389.00
2023-12-23T09:13:02.847Z,92401.00
2023-12-23T09:14:02.914Z,92405.00
2023-12-23T09:15:02.940Z,92395.00
2023-12-23T09:16:02.996Z,92391.00
2023-12-23T09:17:03.093Z,92398.00
2023-12-23T09:18:03.202Z,92403.00
2023-12-23T09:19:03.207Z,92405.00
2023-12-23T09:20:03.201Z,92406.00
2023-12-23T09:21:03.213Z,92402.00
2023-12-23T09:22:03.256Z,92404.00
2023-12-23T09:23:03.337Z,92402.00
2023-12-23T09:24:03.350Z,92396.00
2023-12-23T09:25:03.409Z,92400.00
2023-12-23T09:26:03.507Z,92402.00
2023-12-23T09:27:03.505Z,92400.00
2023-12-23T09:28:03.542Z,92398.00
2023-12-23T09:29:03.610Z,92397.00
2023-12-23T09:30:03.605Z,92393.00
2023-12-23T09:31:03.728Z,92384.00
2023-12-23T09:32:03.735Z,92388.00
2023-12-23T09:33:03.835Z,92394.00
2023-12-23T09:34:03.979Z,92390.00
2023-12-23T09:35:06.173Z,92386.00
2023-12-23T09:36:03.863Z,92387.00
2023-12-23T09:37:03.864Z,92377.00
2023-12-23T09:38:03.978Z,92379.00
2023-12-23T09:39:03.864Z,92373.00
2023-12-23T09:40:03.886Z,92367.00
2023-12-23T09:41:03.908Z,92364.00
2023-12-23T09:42:03.903Z,92368.00
2023-12-23T09:43:03.896Z,92378.00
2023-12-23T09:44:03.963Z,92375.00
2023-12-23T09:45:03.933Z,92375.00
2023-12-23T09:46:03.900Z,92376.00
2023-12-23T09:47:03.884Z,92385.00
2023-12-23T09:48:04.005Z,92390.00
2023-12-23T09:49:07.226Z,92385.00
2023-12-23T09:50:03.907Z,92377.00
2023-12-23T09:51:03.888Z,92379.00
2023-12-23T09:52:03.893Z,92367.00
2023-12-23T09:53:04.076Z,92390.00
2023-12-23T09:54:04.054Z,92392.00
2023-12-23T09:55:06.484Z,92366.00
2023-12-23T09:56:03.991Z,92373.00
2023-12-23T09:57:03.921Z,92377.00
2023-12-23T09:58:03.919Z,92369.00
2023-12-23T09:59:03.955Z,92380.00
2023-12-23T10:00:03.911Z,92388.00
2023-12-23T10:01:03.953Z,92370.00
2023-12-23T10:02:04.004Z,92368.00
2023-12-23T10:03:03.955Z,92393.00
2023-12-23T10:04:03.929Z,92383.00
2023-12-23T10:05:04.011Z,92382.00
2023-12-23T10:06:04.119Z,92369.00
2023-12-23T10:07:03.946Z,92370.00
2023-12-23T10:08:04.015Z,92379.00
2023-12-23T10:09:03.943Z,92368.00
2023-12-23T10:10:03.940Z,92356.00
2023-12-23T10:11:03.974Z,92372.00
2023-12-23T10:12:03.984Z,92358.00
2023-12-23T10:13:03.976Z,92361.00
2023-12-23T10:14:04.027Z,92378.00
2023-12-23T10:15:03.962Z,92359.00
2023-12-23T10:16:03.975Z,92356.00
2023-12-23T10:17:04.013Z,92352.00
2023-12-23T10:18:04.092Z,92348.00
2023-12-23T10:19:04.058Z,92344.00
2023-12-23T10:20:04.044Z,92353.00
2023-12-23T10:21:04.019Z,92350.00
2023-12-23T10:22:05.300Z,92362.00
2023-12-23T10:23:04.031Z,92338.00
2023-12-23T10:24:03.996Z,92335.00
2023-12-23T10:25:04.003Z,92337.00
2023-12-23T10:26:04.029Z,92356.00
2023-12-23T10:27:03.998Z,92345.00
2023-12-23T10:28:03.997Z,92336.00
2023-12-23T10:29:04.263Z,92341.00
2023-12-23T10:30:04.209Z,92339.00
2023-12-23T10:31:04.070Z,92342.00
2023-12-23T10:32:04.074Z,92341.00
2023-12-23T10:33:04.124Z,92360.00
2023-12-23T10:34:04.125Z,92351.00
2023-12-23T10:35:04.115Z,92326.00
2023-12-23T10:36:04.043Z,92332.00
2023-12-23T10:37:04.036Z,92335.00
2023-12-23T10:38:04.070Z,92325.00
2023-12-23T10:39:04.063Z,92325.00
2023-12-23T10:40:04.068Z,92328.00
2023-12-23T10:41:04.088Z,92341.00
2023-12-23T10:42:04.052Z,92341.00
2023-12-23T10:43:04.051Z,92321.00
2023-12-23T10:44:04.103Z,92346.00
2023-12-23T10:45:04.138Z,92335.00
2023-12-23T10:46:04.212Z,92339.00
2023-12-23T10:47:04.298Z,92324.00
2023-12-23T10:48:04.412Z,92320.00
2023-12-23T10:49:04.444Z,92334.00
2023-12-23T10:50:04.537Z,92363.00
2023-12-23T10:51:04.487Z,92367.00
2023-12-23T10:52:04.527Z,92314.00
2023-12-23T10:53:04.561Z,92328.00
2023-12-23T10:54:04.604Z,92345.00
2023-12-23T10:55:04.661Z,92322.00
2023-12-23T10:56:04.685Z,92327.00
2023-12-23T10:57:04.711Z,92319.00
2023-12-23T10:58:04.762Z,92336.00
2023-12-23T10:59:04.838Z,92333.00
2023-12-23T11:00:04.815Z,92307.00
2023-12-23T11:01:04.891Z,92315.00
2023-12-23T11:02:04.919Z,92319.00
2023-12-23T11:03:04.953Z,92329.00
2023-12-23T11:04:04.962Z,92316.00
2023-12-23T11:05:05.042Z,92316.00
2023-12-23T11:06:05.136Z,92313.00
2023-12-23T11:07:05.106Z,92329.00
2023-12-23T11:08:10.486Z,92322.00
2023-12-23T11:09:06.144Z,92301.00
2023-12-23T11:10:05.149Z,92324.00
2023-12-23T11:11:05.153Z,92332.00
2023-12-23T11:12:05.146Z,92300.00
2023-12-23T11:13:05.148Z,92302.00
2023-12-23T11:14:05.173Z,92335.00
2023-12-23T11:15:05.152Z,92296.00
2023-12-23T11:16:05.142Z,92309.00
2023-12-23T11:17:05.151Z,92285.00
2023-12-23T11:18:08.019Z,92300.00
2023-12-23T11:19:05.228Z,92299.00
2023-12-23T11:20:05.244Z,92321.00
2023-12-23T11:21:05.132Z,92307.00
2023-12-23T11:22:05.132Z,92303.00
2023-12-23T11:23:05.157Z,92295.00
2023-12-23T11:24:05.133Z,92322.00
2023-12-23T11:25:05.133Z,92302.00
2023-12-23T11:26:05.363Z,92309.00
2023-12-23T11:27:05.159Z,92310.00
2023-12-23T11:28:05.138Z,92304.00
2023-12-23T11:29:05.225Z,92305.00
2023-12-23T11:30:05.235Z,92296.00
2023-12-23T11:31:05.351Z,92295.00
2023-12-23T11:32:05.208Z,92334.00
2023-12-23T11:33:05.263Z,92286.00
2023-12-23T11:34:05.148Z,92304.00
2023-12-23T11:35:05.160Z,92272.00
2023-12-23T11:36:05.154Z,92293.00
2023-12-23T11:37:05.176Z,92298.00
2023-12-23T11:38:05.154Z,92288.00
2023-12-23T11:39:05.149Z,92287.00
2023-12-23T11:40:05.147Z,92287.00
2023-12-23T11:41:05.186Z,92280.00
2023-12-23T11:42:05.157Z,92271.00
2023-12-23T11:43:05.160Z,92277.00
2023-12-23T11:44:05.238Z,92282.00
2023-12-23T11:45:05.169Z,92278.00